Decoded Metar for LFOV (LAVAL in FRANCE) (IATA:LVA) | Meteo·Mobile Aviation Weather
aviador You're here:

LFOV Decoded Metar

LAVAL in FRANCE
Report Time2019-06-17 04:00:00
UTC Time2019-06-17 04:35:44
Flight Rules vfr VFR
Wind360° at 02 kt
W.Decomp.*RWY 32: 1.5 kt HW 1.3 kt RCW
Visibility9999 m
Phenomena:N/A
Clouds:N/A
CeilingNone
Temp10°C (ISA -4)
Dew Point10°C (100% RH)
AAT9.3°C
QNH1020 hPa
Density Alt-276 ft
Elevation318 ft
Report Wrong Elevation
Raw Report
METAR LFOV 170400Z AUTO 36002KT CAVOK 10/10 Q1020=

Extra information for LFOV:More info

Metar Taf Metar & Taf Last 4 Metars F.Rules Stats Wind Profile Meteogram Temp Stats Airport Information Weather charts Add Link Nearby VenuesMetar ALERT Operation Metar Decoded Social comments